Terminal Aerodrome Forecast
Issued by NWS

Home | Current Version | Previous Version | Text Only | Print | Product List | Glossary On
Versions: 1 2 3 4 5 6 7 8 9 10 11 12 13 14 15 16 17
000
FTUS46 KPDT 232340
TAFRDM
TAF
KRDM 232340Z 2400/2424 28014G23KT P6SM -SHRA BKN060 BKN080
      TEMPO 2400/2403 29018G28KT
     FM240300 27015G25KT P6SM VCSH SCT060 BKN090
     FM240400 28007KT P6SM BKN070 OVC090=

USA.gov is the U.S. government's official web portal to all federal, state and local government web resources and services.